Latest Weather Observations for Jervois

IDD60801

Issued at 5:35 pm CST Thursday 21 August 2014 (issued every 30 minutes, with the page automatically refreshed every 10 minutes)

About weather observations | Map of weather stations | Latest weather observations for NT | Other Formats
Station Details ID: 015602 Name: JERVOIS Lat: -22.95 Lon: 136.14 Height: 328.0 m
Data from the previous 72 hours. | See also: Recent months at Jervois
Date/Time
CST
Temp
°C
App
Temp
°C
Dew
Point
Rel
Hum
%
Delta-T
°C
Wind Press
QNH
hPa
Press
MSL
hPa
Rain
since 9 am
mm
Dir
 
Spd
km/h
Gust
km/h
Spd
kts
Gust
kts
21/05:30pm 20.4 14.1 -10.6 11 11.3 SE 17 22 9 12 1019.3 - 0.0
21/05:00pm 21.0 15.0 -11.4 10 11.7 SE 15 22 8 12 1019.0 - 0.0
21/04:30pm 21.3 15.2 -12.6 9 12.0 SE 15 28 8 15 1018.9 - 0.0
21/04:00pm 21.5 17.0 -11.8 10 12.0 SSE 7 20 4 11 1018.8 - 0.0
21/03:30pm 21.3 15.1 -14.3 8 12.2 ESE 15 20 8 11 1018.8 - 0.0
21/03:00pm 21.0 15.8 -11.4 10 11.7 ESE 11 20 6 11 1019.1 1018.6 0.0
21/02:30pm 20.3 14.7 -11.0 11 11.3 SE 13 22 7 12 1019.3 - 0.0
21/02:00pm 20.0 14.6 -8.0 14 10.7 ESE 13 26 7 14 1019.6 - 0.0
21/01:30pm 19.2 13.7 -9.2 14 10.5 SE 13 20 7 11 1020.1 - 0.0
21/01:00pm 19.7 14.6 -9.0 13 10.7 SSE 11 19 6 10 1020.6 - 0.0
21/12:30pm 19.6 14.0 -10.7 12 10.9 SSE 13 19 7 10 1021.0 - 0.0
21/12:00pm 18.4 14.3 -6.9 17 9.7 E 7 20 4 11 1021.5 1021.1 0.0
21/11:30am 18.6 14.4 -7.5 16 9.9 NNE 7 17 4 9 1022.0 - 0.0
21/11:00am 16.9 11.6 -7.0 19 9.0 E 13 19 7 10 1022.5 - 0.0
21/10:30am 16.9 10.9 -7.0 19 9.0 SE 17 26 9 14 1023.0 - 0.0
21/10:00am 16.2 10.6 -6.7 20 8.6 SE 15 20 8 11 1023.2 - 0.0
21/09:30am 15.5 10.7 -5.8 22 8.1 SSE 11 17 6 9 1023.3 - 0.0
21/09:00am 12.9 9.2 -4.9 28 6.7 S 6 9 3 5 1023.1 1022.8 0.0
21/08:30am 11.4 7.4 -5.2 31 6.1 S 7 11 4 6 1022.9 - 0.0
21/08:00am 8.7 5.6 -5.9 35 5.1 S 2 7 1 4 1022.6 - 0.0
21/07:30am 6.1 2.3 -5.7 42 4.0 S 6 7 3 4 1022.2 - 0.0
21/07:00am 5.2 1.2 -5.5 46 3.6 SE 7 11 4 6 1021.8 - 0.0
21/06:30am 3.6 0.2 -5.5 51 3.0 ESE 4 7 2 4 1021.5 - 0.0
21/06:00am 4.7 0.9 -5.4 48 3.4 E 6 7 3 4 1021.4 1020.9 0.0
21/05:30am 6.3 2.6 -4.5 46 3.8 ESE 6 7 3 4 1021.3 - 0.0
21/05:00am 7.0 2.7 -5.0 42 4.2 ESE 9 11 5 6 1021.0 - 0.0
21/04:30am 7.1 2.8 -5.2 41 4.3 E 9 11 5 6 1021.0 - 0.0
21/04:00am 7.9 3.5 -5.6 38 4.7 ESE 9 13 5 7 1021.0 - 0.0
21/03:30am 7.4 3.5 -4.7 42 4.3 S 7 9 4 5 1021.3 - 0.0
21/03:00am 8.8 4.5 -5.3 36 5.0 SSE 9 13 5 7 1021.5 1021.0 0.0
21/02:30am 9.6 4.9 -5.5 34 5.4 ESE 11 13 6 7 1021.7 - 0.0
21/02:00am 10.6 5.0 -5.9 31 5.9 ESE 15 17 8 9 1021.9 - 0.0
21/01:30am 10.6 5.5 -5.4 32 5.8 SE 13 17 7 9 1022.0 - 0.0
21/01:00am 10.6 5.9 -5.0 33 5.7 SE 11 15 6 8 1022.0 - 0.0
21/12:30am 10.6 6.0 -4.1 35 5.5 SE 11 15 6 8 1022.0 - 0.0
21/12:00am 11.3 6.6 -4.9 32 6.0 SE 11 15 6 8 1022.0 1021.5 0.0
 
Date/Time
CST
Temp
°C
App
Temp
°C
Dew
Point
Rel
Hum
%
Delta-T
°C
Wind Press
QNH
hPa
Press
MSL
hPa
Rain
since 9 am
mm
Dir
 
Spd
km/h
Gust
km/h
Spd
kts
Gust
kts
20/11:30pm 11.4 6.7 -4.8 32 6.0 SE 11 15 6 8 1022.1 - 0.0
20/11:00pm 11.4 7.1 -4.8 32 6.0 SE 9 13 5 7 1022.3 - 0.0
20/10:30pm 12.1 7.4 -4.7 30 6.3 SE 11 15 6 8 1022.2 - 0.0
20/10:00pm 12.5 7.4 -4.8 29 6.5 SE 13 17 7 9 1022.3 - 0.0
20/09:30pm 12.7 7.6 -5.3 28 6.7 SE 13 17 7 9 1022.2 - 0.0
20/09:00pm 12.8 8.5 -4.6 29 6.6 SSE 9 13 5 7 1022.1 1021.6 0.0
20/08:30pm 13.3 9.4 -4.5 28 6.8 S 7 9 4 5 1021.9 - 0.0
20/08:00pm 14.3 10.0 -4.7 26 7.3 SSE 9 13 5 7 1021.4 - 0.0
20/07:30pm 15.3 11.0 -4.8 24 7.8 SSE 9 11 5 6 1021.0 - 0.0
20/07:00pm 16.1 11.8 -4.9 23 8.2 SSE 9 13 5 7 1020.5 - 0.0
20/06:30pm 17.3 12.6 -5.5 20 8.9 S 11 17 6 9 1020.1 - 0.0
20/06:00pm 18.3 13.1 -6.0 18 9.5 SSE 13 20 7 11 1019.7 1019.2 0.0
20/05:30pm 19.1 13.9 -6.6 17 10.0 S 13 17 7 9 1019.3 - 0.0
20/05:00pm 19.4 13.3 -7.4 15 10.3 S 17 26 9 14 1019.1 - 0.0
20/04:30pm 19.5 14.3 -6.0 17 10.1 SSE 13 28 7 15 1018.9 - 0.0
20/04:00pm 20.1 14.4 -7.7 14 10.7 S 15 20 8 11 1018.9 - 0.0
20/03:30pm 20.3 15.5 -6.0 16 10.5 S 11 24 6 13 1018.8 - 0.0
20/03:00pm 20.0 14.5 -5.8 17 10.3 SSE 15 22 8 12 1019.0 1018.5 0.0
20/02:30pm 19.8 13.7 -7.4 15 10.5 S 17 26 9 14 1019.3 - 0.0
20/02:00pm 19.9 14.4 -5.5 17 10.2 ESE 15 22 8 12 1019.8 - 0.0
20/01:30pm 19.1 14.5 -3.7 21 9.4 ESE 11 24 6 13 1020.4 - 0.0
20/01:00pm 18.6 13.9 -5.3 19 9.5 SSW 11 32 6 17 1020.9 - 0.0
20/12:30pm 17.9 12.9 -4.6 21 9.0 E 13 20 7 11 1021.5 - 0.0
20/12:00pm 17.9 12.9 -4.1 22 8.9 S 13 20 7 11 1022.1 1021.6 0.0
20/11:30am 17.2 11.9 -3.9 23 8.5 SE 15 22 8 12 1022.5 - 0.0
20/11:00am 17.4 11.2 -4.4 22 8.7 E 19 28 10 15 1022.9 - 0.0
20/10:30am 16.2 10.5 -3.4 26 7.9 ESE 17 24 9 13 1023.4 - 0.0
20/10:00am 15.3 10.0 -3.5 27 7.5 E 15 20 8 11 1023.7 - 0.0
20/09:30am 13.7 8.4 -3.8 29 6.8 E 15 20 8 11 1023.7 - 0.0
20/09:00am 12.1 6.0 -3.5 33 6.0 E 19 28 10 15 1023.7 1023.3 0.0
20/08:30am 10.6 6.5 -3.4 37 5.3 E 9 15 5 8 1023.5 - 0.0
20/08:00am 8.0 4.7 -4.2 42 4.4 SSW 4 7 2 4 1023.3 - 0.0
20/07:30am 5.3 1.6 -4.5 49 3.4 SW 6 7 3 4 1022.9 - 0.0
20/07:00am 1.7 - - - - SW 7 9 4 5 1022.6 - 0.0
20/06:30am 1.9 - - - - SSW 6 7 3 4 1022.3 - 0.0
20/06:00am 2.0 - - - - S 4 6 2 3 1022.0 1021.4 0.0
20/05:30am 2.7 - - - - CALM 0 0 0 0 1021.8 - 0.0
20/05:00am 3.7 1.2 -3.8 58 2.6 CALM 0 0 0 0 1021.7 - 0.0
20/04:30am 4.3 1.7 -4.5 53 3.0 CALM 0 4 0 2 1021.5 - 0.0
20/04:00am 5.9 2.2 -3.3 51 3.3 S 7 9 4 5 1021.4 - 0.0
20/03:30am 6.8 3.0 -3.4 48 3.7 S 7 9 4 5 1021.5 - 0.0
20/03:00am 7.7 3.9 -3.9 43 4.2 SSW 7 11 4 6 1021.5 1021.0 0.0
20/02:30am 8.3 4.1 -4.1 41 4.5 SSW 9 13 5 7 1021.7 - 0.0
20/02:00am 7.1 3.1 -5.3 41 4.3 S 7 11 4 6 1021.8 - 0.0
20/01:30am 8.2 4.4 -3.8 42 4.4 S 7 11 4 6 1021.9 - 0.0
20/01:00am 9.0 5.3 -3.3 42 4.6 S 7 9 4 5 1022.0 - 0.0
20/12:30am 9.6 5.4 -3.9 38 5.0 S 9 11 5 6 1021.9 - 0.0
20/12:00am 9.7 5.5 -4.1 37 5.1 S 9 11 5 6 1021.9 1021.4 0.0
 
Date/Time
CST
Temp
°C
App
Temp
°C
Dew
Point
Rel
Hum
%
Delta-T
°C
Wind Press
QNH
hPa
Press
MSL
hPa
Rain
since 9 am
mm
Dir
 
Spd
km/h
Gust
km/h
Spd
kts
Gust
kts
19/11:30pm 9.6 6.1 -1.3 46 4.3 S 7 9 4 5 1022.0 - 0.0
19/11:00pm 11.0 7.6 -2.3 39 5.2 S 6 7 3 4 1021.9 - 0.0
19/10:30pm 11.8 8.1 -3.2 35 5.8 S 7 9 4 5 1021.8 - 0.0
19/10:00pm 12.5 8.7 -3.5 32 6.2 S 7 11 4 6 1021.9 - 0.0
19/09:30pm 13.0 9.1 -4.7 29 6.7 S 7 11 4 6 1021.9 - 0.0
19/09:00pm 13.4 9.4 -6.1 25 7.2 SSW 7 11 4 6 1021.8 1021.3 0.0
19/08:30pm 13.2 9.1 -6.6 24 7.2 S 7 9 4 5 1021.7 - 0.0
19/08:00pm 14.2 10.6 -3.6 29 7.0 S 6 7 3 4 1021.4 - 0.0
19/07:30pm 14.6 10.7 -4.9 25 7.5 S 7 9 4 5 1020.8 - 0.0
19/07:00pm 15.6 11.9 -4.2 25 7.8 SSE 6 9 3 5 1020.4 - 0.0
19/06:30pm 17.0 12.6 -5.7 20 8.8 S 9 13 5 7 1020.2 - 0.0
19/06:00pm 18.4 13.6 -5.8 19 9.5 S 11 15 6 8 1020.1 1019.7 0.0
19/05:30pm 19.3 14.3 -7.7 15 10.3 S 11 19 6 10 1019.9 - 0.0
19/05:00pm 19.5 14.4 -5.5 18 10.0 SSE 13 20 7 11 1019.8 - 0.0
19/04:30pm 20.0 14.7 -6.9 15 10.5 SSE 13 26 7 14 1019.7 - 0.0
19/04:00pm 20.0 14.3 -8.0 14 10.7 S 15 24 8 13 1019.7 - 0.0
19/03:30pm 19.7 14.0 -7.7 15 10.5 SSE 15 26 8 14 1019.8 - 0.0
19/03:00pm 20.3 15.8 -6.6 15 10.6 S 9 19 5 10 1020.0 1019.5 0.0
19/02:30pm 19.8 15.5 -5.3 18 10.1 S 9 24 5 13 1020.4 - 0.0
19/02:00pm 19.6 14.1 -5.3 18 10.0 S 15 22 8 12 1020.8 - 0.0
19/01:30pm 19.2 14.0 -3.0 22 9.3 S 15 28 8 15 1021.3 - 0.0
19/01:00pm 18.5 13.7 -2.8 23 8.9 S 13 22 7 12 1021.9 - 0.0
19/12:30pm 18.6 13.3 -3.5 22 9.1 S 15 20 8 11 1022.5 - 0.0
19/12:00pm 17.3 12.1 -2.8 25 8.3 SSW 15 26 8 14 1023.2 1022.8 0.0
19/11:30am 17.4 12.3 -2.2 26 8.2 S 15 24 8 13 1023.8 - 0.0
19/11:00am 17.5 12.8 -2.0 26 8.2 S 13 20 7 11 1024.5 - 0.0
19/10:30am 17.1 12.0 -1.6 28 7.9 SSE 15 20 8 11 1024.9 - 0.0
19/10:00am 16.0 10.2 -1.4 30 7.3 SE 19 26 10 14 1025.2 - 0.0
19/09:30am 15.0 9.6 -1.0 33 6.7 SE 17 26 9 14 1025.2 - 0.0
19/09:00am 13.6 8.7 -0.5 38 5.9 SE 15 20 8 11 1025.2 1024.7 0.0
19/08:30am 11.9 7.9 0.5 45 4.8 SSE 11 17 6 9 1025.2 - 0.0
19/08:00am 9.5 6.2 -0.1 51 3.9 S 7 11 4 6 1024.8 - 0.0
19/07:30am 7.0 3.6 -0.7 58 3.0 SSW 7 11 4 6 1024.6 - 0.0
19/07:00am 5.9 2.1 -0.6 63 2.5 SSW 9 11 5 6 1024.2 - 0.0
19/06:30am 5.7 2.4 -0.2 66 2.3 S 7 9 4 5 1023.9 - 0.0
19/06:00am 6.3 2.9 -0.4 62 2.6 S 7 9 4 5 1023.4 1023.0 0.0
19/05:30am 6.3 2.9 -0.4 62 2.6 S 7 11 4 6 1023.0 - 0.0
19/05:00am 6.6 3.2 -0.3 61 2.7 S 7 9 4 5 1022.7 - 0.0
19/04:30am 7.1 3.8 0.0 60 2.8 S 7 11 4 6 1022.6 - 0.0
19/04:00am 7.4 4.1 0.1 60 2.9 S 7 11 4 6 1022.6 - 0.0
19/03:30am 7.6 4.3 0.4 60 2.9 S 7 9 4 5 1022.7 - 0.0
19/03:00am 8.0 4.8 0.6 59 3.0 S 7 7 4 4 1022.6 1022.1 0.0
19/02:30am 8.6 5.4 0.5 57 3.3 S 7 9 4 5 1022.7 - 0.0
19/02:00am 8.5 5.3 1.0 59 3.1 S 7 9 4 5 1022.8 - 0.0
19/01:30am 9.3 6.2 1.1 56 3.4 S 7 9 4 5 1022.8 - 0.0
19/01:00am 9.7 6.6 1.1 55 3.6 S 7 11 4 6 1022.9 - 0.0
19/12:30am 10.1 6.6 1.0 53 3.8 S 9 11 5 6 1022.9 - 0.0
19/12:00am 10.3 6.8 1.3 53 3.8 S 9 11 5 6 1023.1 1022.7 0.0
 
Date/Time
CST
Temp
°C
App
Temp
°C
Dew
Point
Rel
Hum
%
Delta-T
°C
Wind Press
QNH
hPa
Press
MSL
hPa
Rain
since 9 am
mm
Dir
 
Spd
km/h
Gust
km/h
Spd
kts
Gust
kts
18/11:30pm 10.8 7.7 1.1 51 4.1 S 7 11 4 6 1023.2 - 0.0
18/11:00pm 10.8 7.8 2.0 54 3.8 SSE 7 9 4 5 1023.3 - 0.0
18/10:30pm 11.5 8.7 2.3 53 4.0 S 6 7 3 4 1023.5 - 0.0
18/10:00pm 12.4 9.4 2.1 49 4.5 SSE 7 9 4 5 1023.4 - 0.0
18/09:30pm 13.0 9.9 1.5 45 5.0 S 7 9 4 5 1023.3 - 0.0
18/09:00pm 13.5 10.0 1.3 43 5.3 SSE 9 11 5 6 1023.2 1022.8 0.0
18/08:30pm 13.9 10.8 1.6 43 5.4 SSE 7 9 4 5 1022.9 - 0.0
18/08:00pm 14.5 11.5 1.9 42 5.6 SSE 7 11 4 6 1022.8 - 0.0
18/07:30pm 15.9 12.5 1.9 39 6.3 SSE 9 11 5 6 1022.5 - 0.0
18/07:00pm 16.7 12.9 1.6 36 6.8 SSE 11 15 6 8 1021.8 - 0.0
18/06:30pm 17.5 13.6 1.3 33 7.3 S 11 17 6 9 1021.5 - 0.0
18/06:00pm 18.5 14.2 1.0 31 7.9 SSE 13 20 7 11 1021.3 1020.8 0.0

Other Formats:

Comma delimited format used in spreadsheet applications
http://www.bom.gov.au/fwo/IDD60801/IDD60801.94327.axf

JavaScript Object Notation format (JSON) in row-major order
http://www.bom.gov.au/fwo/IDD60801/IDD60801.94327.json